Time;durP1;ratioP1;P1;durP2;ratioP2;P2;SDS_P1;SDS_P2;PMS_P1;PMS_P2;Temp;Humidity;BMP_temperature;BMP_pressure;BME280_temperature;BME280_humidity;BME280_pressure;Samples;Min_cycle;Max_cycle;Signal;HPM_P1;HPM_P2
2023/12/02 05:06:07;;;;;;;0.40;0.40;;;0.70;99.90;;;;;;5546772;23;20228;-62
2023/12/02 05:08:33;;;;;;;0.40;0.40;;;0.70;99.90;;;;;;4974050;28;20172;-65
2023/12/02 05:10:59;;;;;;;0.40;0.40;;;0.70;99.90;;;;;;4971649;28;20658;-64
2023/12/02 05:13:24;;;;;;;0.30;0.30;;;0.70;99.90;;;;;;4973721;28;20596;-64
2023/12/02 05:15:50;;;;;;;0.30;0.30;;;0.70;99.90;;;;;;4964330;28;20193;-63
2023/12/02 05:18:15;;;;;;;0.40;0.40;;;0.70;99.90;;;;;;4957174;29;20231;-65
2023/12/02 05:20:41;;;;;;;0.30;0.30;;;0.60;99.90;;;;;;4958185;29;20524;-65
2023/12/02 05:23:06;;;;;;;0.40;0.40;;;0.60;99.90;;;;;;4958544;29;20541;-65
2023/12/02 05:25:32;;;;;;;0.30;0.30;;;0.50;99.90;;;;;;4957963;28;20303;-64
2023/12/02 05:27:57;;;;;;;0.43;0.43;;;0.50;99.90;;;;;;4958265;29;20176;-66
2023/12/02 05:30:23;;;;;;;0.40;0.40;;;0.40;99.90;;;;;;4940825;29;20184;-64
2023/12/02 05:32:51;;;;;;;0.40;0.40;;;0.40;99.90;;;;;;4958417;29;20695;-64
2023/12/02 05:35:18;;;;;;;0.30;0.30;;;0.40;99.90;;;;;;4956532;28;20228;-65
2023/12/02 05:37:44;;;;;;;0.50;0.50;;;0.30;99.90;;;;;;4958339;29;20528;-64
2023/12/02 05:40:10;;;;;;;0.40;0.40;;;0.30;99.90;;;;;;4958455;29;20172;-65
2023/12/02 05:42:35;;;;;;;0.40;0.40;;;0.40;99.90;;;;;;4959153;29;20177;-65
2023/12/02 05:45:01;;;;;;;0.33;0.33;;;0.30;99.90;;;;;;4957388;28;20688;-65
2023/12/02 05:47:26;;;;;;;0.40;0.40;;;0.30;99.90;;;;;;4958155;29;20184;-65
2023/12/02 05:49:52;;;;;;;0.40;0.40;;;0.30;99.90;;;;;;4957766;29;20173;-66
2023/12/02 05:52:18;;;;;;;0.30;0.30;;;0.30;99.90;;;;;;4958229;29;20183;-64
2023/12/02 05:54:43;;;;;;;0.40;0.40;;;0.40;99.90;;;;;;4957665;28;20193;-67
2023/12/02 05:57:09;;;;;;;0.50;0.50;;;0.40;99.90;;;;;;4958096;29;20180;-66
2023/12/02 05:59:34;;;;;;;0.40;0.40;;;0.40;99.90;;;;;;4957959;29;20179;-64
2023/12/02 06:02:00;;;;;;;0.30;0.30;;;0.40;99.90;;;;;;4957766;29;20252;-64
2023/12/02 06:04:26;;;;;;;0.50;0.50;;;0.40;99.90;;;;;;4957050;29;20195;-66
2023/12/02 06:06:51;;;;;;;0.40;0.40;;;0.30;99.90;;;;;;4940394;29;20208;-64
2023/12/02 06:09:17;;;;;;;0.30;0.30;;;0.30;99.90;;;;;;4957622;29;20236;-65
2023/12/02 06:11:43;;;;;;;0.30;0.30;;;0.30;99.90;;;;;;4957538;29;20169;-63
2023/12/02 06:14:09;;;;;;;0.30;0.30;;;0.40;99.90;;;;;;4957142;29;20181;-66
2023/12/02 06:16:35;;;;;;;0.30;0.30;;;0.30;99.90;;;;;;4957598;28;20248;-66
2023/12/02 06:19:01;;;;;;;0.40;0.40;;;0.30;99.90;;;;;;4957716;29;20675;-64
2023/12/02 06:21:26;;;;;;;0.30;0.30;;;0.20;99.90;;;;;;4957561;29;20201;-65
2023/12/02 06:23:52;;;;;;;0.40;0.40;;;0.30;99.90;;;;;;4956866;29;20181;-65
2023/12/02 06:26:17;;;;;;;0.30;0.30;;;0.30;99.90;;;;;;4956297;28;20235;-64
2023/12/02 06:28:47;;;;;;;0.90;0.90;;;0.30;99.90;;;;;;4957218;28;20180;-65
2023/12/02 06:31:13;;;;;;;0.40;0.40;;;0.30;99.90;;;;;;4957206;29;20568;-67
2023/12/02 06:33:38;;;;;;;0.43;0.43;;;0.30;99.90;;;;;;4957120;29;20199;-64
2023/12/02 06:36:04;;;;;;;0.40;0.40;;;0.30;99.90;;;;;;4939676;29;20440;-65
2023/12/02 06:38:30;;;;;;;0.50;0.50;;;0.30;99.90;;;;;;4956766;29;20263;-64
2023/12/02 06:40:56;;;;;;;0.40;0.40;;;0.40;99.90;;;;;;4956723;29;20248;-66
2023/12/02 06:43:21;;;;;;;0.40;0.40;;;0.40;99.90;;;;;;4957265;29;20181;-65
2023/12/02 06:45:47;;;;;;;0.40;0.40;;;0.30;99.90;;;;;;4956349;28;20243;-65
2023/12/02 06:48:12;;;;;;;0.40;0.40;;;0.20;99.90;;;;;;4957049;29;20173;-63
2023/12/02 06:50:38;;;;;;;0.40;0.40;;;0.20;99.90;;;;;;4957080;29;20533;-64
2023/12/02 06:53:04;;;;;;;0.40;0.40;;;0.20;99.90;;;;;;4939395;29;20180;-66
2023/12/02 06:55:31;;;;;;;0.40;0.40;;;0.10;99.90;;;;;;4956371;28;20202;-65
2023/12/02 06:57:58;;;;;;;0.40;0.40;;;0.10;99.90;;;;;;4939503;29;20424;-67
2023/12/02 07:00:23;;;;;;;0.40;0.40;;;0.10;99.90;;;;;;4956953;29;20176;-64
2023/12/02 07:02:49;;;;;;;0.30;0.30;;;0.10;99.90;;;;;;4956214;29;20548;-66
2023/12/02 07:05:15;;;;;;;0.40;0.40;;;0.10;99.90;;;;;;4955702;28;20219;-65
2023/12/02 07:07:40;;;;;;;0.40;0.40;;;0.10;99.90;;;;;;4956454;28;20254;-66
2023/12/02 07:10:07;;;;;;;0.40;0.40;;;0.10;99.90;;;;;;4956623;29;20904;-67
2023/12/02 07:12:32;;;;;;;0.40;0.40;;;0.10;99.90;;;;;;4956287;29;20208;-64
2023/12/02 07:14:58;;;;;;;0.40;0.40;;;0.00;99.90;;;;;;4954944;28;20239;-65
2023/12/02 07:17:23;;;;;;;0.40;0.40;;;0.00;99.90;;;;;;4954098;29;20187;-63
2023/12/02 07:19:49;;;;;;;0.40;0.40;;;0.00;99.90;;;;;;4954652;29;20219;-64
2023/12/02 07:22:15;;;;;;;0.30;0.30;;;0.00;99.90;;;;;;4955392;29;20173;-64
2023/12/02 07:24:40;;;;;;;0.40;0.40;;;0.00;99.90;;;;;;4955236;28;20236;-66
2023/12/02 07:27:06;;;;;;;0.50;0.50;;;0.10;99.90;;;;;;4955748;29;20690;-66
2023/12/02 07:29:31;;;;;;;0.60;0.60;;;0.10;99.90;;;;;;4955312;29;20743;-65
2023/12/02 07:31:57;;;;;;;0.40;0.40;;;0.10;99.90;;;;;;4955672;29;20169;-65
2023/12/02 07:34:22;;;;;;;0.47;0.47;;;0.20;99.90;;;;;;4953979;29;20184;-64
2023/12/02 07:36:48;;;;;;;0.40;0.40;;;0.10;99.90;;;;;;4954051;28;20834;-66
2023/12/02 07:39:14;;;;;;;0.40;0.40;;;0.20;99.90;;;;;;4953475;28;20537;-66
2023/12/02 07:41:42;;;;;;;0.40;0.40;;;0.10;99.90;;;;;;4954285;29;20267;-66
2023/12/02 07:44:08;;;;;;;0.40;0.40;;;0.10;99.90;;;;;;4953699;29;20282;-65
2023/12/02 07:46:33;;;;;;;0.30;0.30;;;0.10;99.90;;;;;;4954212;28;20242;-65
2023/12/02 07:48:59;;;;;;;0.50;0.50;;;0.00;99.90;;;;;;4954372;29;20176;-64
2023/12/02 07:51:24;;;;;;;0.30;0.30;;;0.00;99.90;;;;;;4956191;29;20184;-64
2023/12/02 07:53:50;;;;;;;0.40;0.40;;;0.00;99.90;;;;;;4955771;29;20184;-62
2023/12/02 07:56:17;;;;;;;0.40;0.40;;;0.00;99.90;;;;;;4955377;28;20560;-63
2023/12/02 07:58:42;;;;;;;0.30;0.30;;;0.00;99.90;;;;;;4955651;29;20503;-65
2023/12/02 08:01:08;;;;;;;0.50;0.50;;;0.10;99.90;;;;;;4955874;29;20208;-63
2023/12/02 08:03:34;;;;;;;0.40;0.40;;;0.10;99.90;;;;;;4955667;29;20645;-66
2023/12/02 08:06:00;;;;;;;0.47;0.47;;;0.00;99.90;;;;;;4955007;28;20718;-64
2023/12/02 08:08:28;;;;;;;0.50;0.50;;;0.10;99.90;;;;;;4955301;29;20200;-65
2023/12/02 08:10:55;;;;;;;0.40;0.40;;;0.10;99.90;;;;;;4955660;29;20223;-65
2023/12/02 08:13:21;;;;;;;0.30;0.30;;;0.10;99.90;;;;;;4955458;29;20179;-65
2023/12/02 08:15:47;;;;;;;0.40;0.40;;;0.10;99.90;;;;;;4955134;28;20203;-63
2023/12/02 08:18:13;;;;;;;0.73;0.73;;;0.10;99.90;;;;;;4955359;29;20416;-66
2023/12/02 08:20:41;;;;;;;0.30;0.30;;;0.10;99.90;;;;;;4955558;29;20416;-63
2023/12/02 08:23:07;;;;;;;0.40;0.40;;;0.00;99.90;;;;;;4937790;29;20637;-66
2023/12/02 08:25:33;;;;;;;0.40;0.40;;;0.00;99.90;;;;;;4937864;29;20211;-67
2023/12/02 08:27:58;;;;;;;0.40;0.40;;;0.00;99.90;;;;;;4955351;29;20264;-67
2023/12/02 08:30:24;;;;;;;1.07;0.80;;;0.00;99.90;;;;;;4954979;29;20180;-64
2023/12/02 08:32:50;;;;;;;0.40;0.40;;;0.10;99.90;;;;;;4955393;29;20180;-66
2023/12/02 08:35:16;;;;;;;0.37;0.37;;;0.00;99.90;;;;;;4954776;28;20696;-64
2023/12/02 08:37:41;;;;;;;0.40;0.40;;;0.10;99.90;;;;;;4938057;29;20661;-66
2023/12/02 08:40:10;;;;;;;0.50;0.50;;;0.10;99.90;;;;;;4955176;29;20772;-65
2023/12/02 08:42:36;;;;;;;0.40;0.40;;;0.10;99.90;;;;;;4955242;29;20212;-67
2023/12/02 08:45:02;;;;;;;0.33;0.33;;;0.00;99.90;;;;;;4954630;28;20660;-64
2023/12/02 08:47:28;;;;;;;0.43;0.43;;;0.00;99.90;;;;;;4955222;29;20176;-66
2023/12/02 08:49:53;;;;;;;0.40;0.40;;;0.10;99.90;;;;;;4937801;29;20168;-64
2023/12/02 08:52:19;;;;;;;0.37;0.37;;;0.00;99.90;;;;;;4956837;28;20173;-65
2023/12/02 08:54:44;;;;;;;0.40;0.40;;;0.00;99.90;;;;;;4958636;28;20225;-66
2023/12/02 08:57:10;;;;;;;0.40;0.40;;;0.00;99.90;;;;;;4959375;29;20180;-64
2023/12/02 08:59:36;;;;;;;0.50;0.50;;;-0.10;99.90;;;;;;4958703;29;20191;-66
2023/12/02 09:02:05;;;;;;;0.37;0.37;;;-0.10;99.90;;;;;;4959029;29;20177;-64
2023/12/02 09:04:31;;;;;;;0.40;0.40;;;-0.10;99.90;;;;;;4958545;29;20196;-66
2023/12/02 09:06:57;;;;;;;0.40;0.40;;;0.00;99.90;;;;;;4958666;28;20663;-65
2023/12/02 09:09:22;;;;;;;1.00;1.00;;;0.00;99.90;;;;;;4958713;29;20491;-65
2023/12/02 09:11:48;;;;;;;0.67;0.67;;;0.10;99.90;;;;;;4958832;29;20867;-64
2023/12/02 09:14:14;;;;;;;0.37;0.37;;;0.10;99.90;;;;;;4958032;29;20852;-65
2023/12/02 09:16:46;;;;;;;0.40;0.40;;;0.20;99.90;;;;;;4958694;28;20475;-66
2023/12/02 09:19:53;;;;;;;0.30;0.30;;;0.20;99.90;;;;;;4941585;29;20179;-67
2023/12/02 09:22:49;;;;;;;0.30;0.30;;;0.20;99.90;;;;;;4958729;29;20175;-66
2023/12/02 09:25:26;;;;;;;0.30;0.30;;;0.20;99.90;;;;;;4957942;28;20220;-65
2023/12/02 09:27:58;;;;;;;0.50;0.50;;;0.20;99.90;;;;;;4958455;29;20176;-66
2023/12/02 09:30:24;;;;;;;0.30;0.30;;;0.20;99.90;;;;;;4958411;29;20271;-64
2023/12/02 09:32:49;;;;;;;0.40;0.40;;;0.30;99.90;;;;;;4958413;29;20268;-65
2023/12/02 09:35:15;;;;;;;0.30;0.30;;;0.30;99.90;;;;;;4957856;28;20568;-62
2023/12/02 09:38:03;;;;;;;0.47;0.47;;;0.30;99.90;;;;;;4958456;29;20180;-67
2023/12/02 09:40:37;;;;;;;0.32;0.32;;;0.30;99.90;;;;;;4958172;29;20514;-65
2023/12/02 09:43:18;;;;;;;0.40;0.40;;;0.30;99.90;;;;;;4957941;29;20173;-65
2023/12/02 09:45:58;;;;;;;0.50;0.50;;;0.30;99.90;;;;;;4957632;28;20207;-65
2023/12/02 09:48:24;;;;;;;0.40;0.40;;;0.30;99.90;;;;;;4958538;29;20172;-66
2023/12/02 09:50:50;;;;;;;0.37;0.37;;;0.30;99.90;;;;;;4958028;29;20732;-66
2023/12/02 09:53:39;;;;;;;0.40;0.40;;;0.20;99.90;;;;;;4958070;29;20828;-64
2023/12/02 09:56:20;;;;;;;0.50;0.50;;;0.20;99.90;;;;;;4957550;28;20292;-65
2023/12/02 09:58:46;;;;;;;0.40;0.40;;;0.20;99.90;;;;;;4957595;29;20191;-65
2023/12/02 10:01:44;;;;;;;0.30;0.30;;;0.20;99.90;;;;;;4957854;29;20569;-63
2023/12/02 10:04:37;;;;;;;0.35;0.35;;;0.20;99.90;;;;;;4956945;28;20168;-65
2023/12/02 10:07:07;;;;;;;0.30;0.30;;;0.10;99.90;;;;;;4957511;28;20200;-65
2023/12/02 10:09:50;;;;;;;0.43;0.43;;;0.10;99.90;;;;;;4958080;29;20182;-64
2023/12/02 10:12:42;;;;;;;0.30;0.30;;;0.10;99.90;;;;;;4957271;29;20224;-64
2023/12/02 10:15:11;;;;;;;0.30;0.30;;;0.00;99.90;;;;;;4937784;29;20197;-65
2023/12/02 10:17:44;;;;;;;0.43;0.43;;;0.10;99.90;;;;;;4938410;29;20182;-65
2023/12/02 10:20:12;;;;;;;0.40;0.40;;;0.20;99.90;;;;;;4938603;29;20685;-65
2023/12/02 10:22:47;;;;;;;0.40;0.40;;;0.20;99.90;;;;;;4938432;29;20186;-67
2023/12/02 10:25:33;;;;;;;0.40;0.40;;;0.20;99.90;;;;;;4937916;29;20205;-65
2023/12/02 10:28:12;;;;;;;0.40;0.40;;;0.20;99.90;;;;;;4945085;29;20263;-65
2023/12/02 10:30:46;;;;;;;0.30;0.30;;;0.20;99.90;;;;;;4957524;29;20219;-64
2023/12/02 10:33:27;;;;;;;0.40;0.40;;;0.20;99.90;;;;;;4940203;29;20711;-66
2023/12/02 10:36:12;;;;;;;0.40;0.40;;;0.20;99.90;;;;;;4956745;28;20204;-66
2023/12/02 10:39:02;;;;;;;0.38;0.38;;;0.20;99.90;;;;;;4957429;29;20180;-65
2023/12/02 10:41:38;;;;;;;0.40;0.40;;;0.20;99.90;;;;;;4957362;29;20230;-64
2023/12/02 10:44:07;;;;;;;0.40;0.40;;;0.20;99.90;;;;;;4956382;29;20192;-64
2023/12/02 10:46:33;;;;;;;0.40;0.40;;;0.20;99.90;;;;;;4957109;28;20570;-63
2023/12/02 10:49:00;;;;;;;0.35;0.35;;;0.20;99.90;;;;;;4957179;29;20176;-64
2023/12/02 10:51:27;;;;;;;0.40;0.40;;;0.20;99.90;;;;;;4957070;29;20183;-66
2023/12/02 10:53:57;;;;;;;0.40;0.40;;;0.20;99.90;;;;;;4956903;29;20172;-66
2023/12/02 10:56:26;;;;;;;0.40;0.40;;;0.20;99.90;;;;;;4956704;28;20668;-65
2023/12/02 10:58:52;;;;;;;0.30;0.30;;;0.20;99.90;;;;;;4956685;29;20192;-66
2023/12/02 11:02:02;;;;;;;0.40;0.40;;;0.20;99.90;;;;;;4956640;29;20188;-66
2023/12/02 11:04:43;;;;;;;0.30;0.30;;;0.20;99.90;;;;;;4897588;29;20213;-65
2023/12/02 11:07:14;;;;;;;0.50;0.50;;;0.30;99.90;;;;;;4897627;29;20197;-64
2023/12/02 11:10:37;;;;;;;0.40;0.40;;;0.20;99.90;;;;;;4897773;29;20186;-65
2023/12/02 11:13:12;;;;;;;0.38;0.38;;;0.30;99.90;;;;;;4841506;29;20181;-66
2023/12/02 11:16:07;;;;;;;0.30;0.30;;;0.20;99.90;;;;;;4824797;29;20212;-64
2023/12/02 11:18:39;;;;;;;0.40;0.40;;;0.20;99.90;;;;;;4873326;29;20187;-65
2023/12/02 11:21:07;;;;;;;0.40;0.40;;;0.20;99.90;;;;;;4878712;29;20187;-66
2023/12/02 11:23:50;;;;;;;0.40;0.40;;;0.20;99.90;;;;;;4878753;29;20328;-63
2023/12/02 11:26:42;;;;;;;0.40;0.40;;;0.20;99.90;;;;;;4896573;29;20272;-65
2023/12/02 11:29:19;;;;;;;0.40;0.40;;;0.20;99.90;;;;;;4897038;29;20258;-66
2023/12/02 11:32:00;;;;;;;0.50;0.50;;;0.20;99.90;;;;;;4897293;29;20265;-64
2023/12/02 11:34:42;;;;;;;0.30;0.30;;;0.20;99.90;;;;;;4909416;29;20330;-65
2023/12/02 11:37:26;;;;;;;0.40;0.40;;;0.20;99.90;;;;;;4956410;29;20223;-64
2023/12/02 11:40:26;;;;;;;0.70;0.70;;;0.20;99.90;;;;;;4955881;29;20190;-67
2023/12/02 11:43:06;;;;;;;0.40;0.40;;;0.20;99.90;;;;;;4956045;29;20180;-67
2023/12/02 11:45:37;;;;;;;0.55;0.55;;;0.20;99.90;;;;;;4955563;28;20300;-65
2023/12/02 11:48:17;;;;;;;0.40;0.40;;;0.20;99.90;;;;;;4956181;29;20590;-66
2023/12/02 11:51:11;;;;;;;0.40;0.40;;;0.20;99.90;;;;;;4956102;29;20530;-65
2023/12/02 11:54:04;;;;;;;0.40;0.40;;;0.20;99.90;;;;;;4955698;29;20263;-67
2023/12/02 11:56:30;;;;;;;0.43;0.43;;;0.20;99.90;;;;;;4955864;28;20189;-66
2023/12/02 11:59:09;;;;;;;0.40;0.40;;;0.20;99.90;;;;;;4955624;29;20176;-66
2023/12/02 12:02:10;;;;;;;0.50;0.50;;;0.10;99.90;;;;;;4955739;29;20177;-67
2023/12/02 12:04:48;;;;;;;0.40;0.40;;;0.10;99.90;;;;;;4954143;29;20584;-66
2023/12/02 12:07:32;;;;;;;0.30;0.30;;;0.10;99.90;;;;;;4955312;29;20241;-64
2023/12/02 12:10:13;;;;;;;0.40;0.40;;;0.10;99.90;;;;;;4955772;29;20175;-66
2023/12/02 12:12:42;;;;;;;0.40;0.40;;;0.10;99.90;;;;;;4955781;29;20172;-66
2023/12/02 12:15:08;;;;;;;0.40;0.40;;;0.20;99.90;;;;;;4955016;28;20560;-65
2023/12/02 12:17:34;;;;;;;0.43;0.43;;;0.20;99.90;;;;;;4955613;29;20176;-67
2023/12/02 12:20:19;;;;;;;0.50;0.50;;;0.30;99.90;;;;;;4938286;29;20543;-65
2023/12/02 12:22:45;;;;;;;0.35;0.35;;;0.30;99.90;;;;;;4955288;29;20192;-66
2023/12/02 12:25:11;;;;;;;0.50;0.50;;;0.30;99.90;;;;;;4954689;28;20575;-66
2023/12/02 12:27:36;;;;;;;0.40;0.40;;;0.40;99.90;;;;;;4955428;29;20176;-66
2023/12/02 12:30:02;;;;;;;0.40;0.40;;;0.40;99.90;;;;;;4955335;29;20695;-66
2023/12/02 12:32:28;;;;;;;0.40;0.40;;;0.40;99.90;;;;;;4955416;29;20176;-65
2023/12/02 12:34:54;;;;;;;0.43;0.43;;;0.30;99.90;;;;;;4954924;28;20177;-67
2023/12/02 12:37:20;;;;;;;0.83;0.80;;;0.40;99.90;;;;;;4955686;29;20651;-66
2023/12/02 12:39:46;;;;;;;0.40;0.40;;;0.40;99.90;;;;;;4955241;29;20182;-65
2023/12/02 12:42:12;;;;;;;0.30;0.30;;;0.30;99.90;;;;;;4955266;29;20176;-66
2023/12/02 12:44:41;;;;;;;0.43;0.43;;;0.30;99.90;;;;;;4954682;29;20209;-67
2023/12/02 12:47:08;;;;;;;0.45;0.45;;;0.30;99.90;;;;;;4955291;29;20189;-65
2023/12/02 12:49:38;;;;;;;0.40;0.40;;;0.30;99.90;;;;;;4955015;29;20184;-67
2023/12/02 12:52:06;;;;;;;0.40;0.40;;;0.30;99.90;;;;;;4955263;29;20203;-64
2023/12/02 12:54:39;;;;;;;0.40;0.40;;;0.30;99.90;;;;;;4954750;29;20540;-65
2023/12/02 12:57:11;;;;;;;0.38;0.38;;;0.30;99.90;;;;;;4955252;29;20537;-66
2023/12/02 12:59:37;;;;;;;0.40;0.40;;;0.30;99.90;;;;;;4954787;29;20211;-66
2023/12/02 13:02:39;;;;;;;0.88;0.75;;;0.20;99.90;;;;;;4955110;29;20733;-65
2023/12/02 13:05:09;;;;;;;0.50;0.50;;;0.20;99.90;;;;;;4954324;28;20208;-65
2023/12/02 13:07:59;;;;;;;0.40;0.40;;;0.20;99.90;;;;;;4954550;29;20185;-66
2023/12/02 13:10:29;;;;;;;0.30;0.30;;;0.20;99.90;;;;;;4955050;29;20164;-64
2023/12/02 13:12:57;;;;;;;0.40;0.40;;;0.20;99.90;;;;;;4954797;29;20520;-64
2023/12/02 13:15:24;;;;;;;0.47;0.47;;;0.20;99.90;;;;;;4954568;28;20188;-64
2023/12/02 13:17:50;;;;;;;0.30;0.30;;;0.20;99.90;;;;;;4955206;29;20185;-67
2023/12/02 13:20:17;;;;;;;0.40;0.40;;;0.20;99.90;;;;;;4954048;29;20181;-63
2023/12/02 13:22:45;;;;;;;0.50;0.50;;;0.20;99.90;;;;;;4954338;29;20187;-64
2023/12/02 13:25:25;;;;;;;0.40;0.40;;;0.20;99.90;;;;;;4954295;28;20204;-64
2023/12/02 13:27:56;;;;;;;0.50;0.50;;;0.20;99.90;;;;;;4954957;29;20251;-64
2023/12/02 13:30:25;;;;;;;0.32;0.32;;;0.20;99.90;;;;;;4954778;29;20496;-64
2023/12/02 13:32:54;;;;;;;0.30;0.30;;;0.20;99.90;;;;;;4954562;29;20165;-65
2023/12/02 13:35:30;;;;;;;0.57;0.57;;;0.10;99.90;;;;;;4953833;28;20211;-65
2023/12/02 13:38:27;;;;;;;0.35;0.35;;;0.10;99.90;;;;;;4955822;28;20595;-66
2023/12/02 13:41:26;;;;;;;0.30;0.30;;;0.00;99.90;;;;;;4958278;29;20177;-66
2023/12/02 13:43:53;;;;;;;0.40;0.40;;;-0.10;99.90;;;;;;4954883;29;20581;-65
2023/12/02 13:46:32;;;;;;;0.40;0.40;;;-0.10;99.90;;;;;;4957580;28;20211;-66
2023/12/02 13:49:16;;;;;;;0.47;0.47;;;-0.20;99.90;;;;;;4957983;29;20181;-66
2023/12/02 13:52:03;;;;;;;0.40;0.40;;;-0.20;99.90;;;;;;4958248;29;20592;-65
2023/12/02 13:54:36;;;;;;;0.50;0.50;;;-0.30;99.90;;;;;;4957670;29;20176;-66
2023/12/02 13:57:13;;;;;;;0.40;0.40;;;-0.30;99.90;;;;;;4957905;28;20203;-64
2023/12/02 13:59:38;;;;;;;0.50;0.50;;;-0.30;99.90;;;;;;4958181;29;20191;-67
2023/12/02 14:02:37;;;;;;;0.40;0.40;;;-0.30;99.90;;;;;;4958062;29;20176;-64
2023/12/02 14:05:25;;;;;;;0.40;0.40;;;-0.30;99.90;;;;;;4957066;28;20216;-64
2023/12/02 14:07:52;;;;;;;0.40;0.40;;;-0.30;99.90;;;;;;4957825;29;20237;-67
2023/12/02 14:10:22;;;;;;;0.40;0.40;;;-0.30;99.90;;;;;;4940876;29;20176;-64
2023/12/02 14:13:05;;;;;;;0.40;0.40;;;-0.30;99.90;;;;;;4957896;29;20179;-66
2023/12/02 14:15:47;;;;;;;0.40;0.40;;;-0.30;99.90;;;;;;4957244;28;20196;-64
2023/12/02 14:18:50;;;;;;;0.40;0.40;;;-0.40;99.90;;;;;;4957034;29;20184;-66
2023/12/02 14:21:49;;;;;;;0.40;0.40;;;-0.40;99.90;;;;;;4957595;29;20540;-67
2023/12/02 14:24:52;;;;;;;0.40;0.40;;;-0.40;99.90;;;;;;4934258;29;20191;-67
2023/12/02 14:27:38;;;;;;;0.30;0.30;;;-0.40;99.90;;;;;;4957559;29;20182;-68
2023/12/02 14:30:26;;;;;;;0.40;0.40;;;-0.40;99.90;;;;;;4957629;29;20177;-65
2023/12/02 14:33:09;;;;;;;0.30;0.30;;;-0.40;99.90;;;;;;4957229;29;20557;-65
2023/12/02 14:35:43;;;;;;;0.43;0.43;;;-0.50;99.90;;;;;;4956836;28;20219;-66
2023/12/02 14:38:37;;;;;;;0.40;0.40;;;-0.50;99.90;;;;;;4956956;29;20215;-65
2023/12/02 14:41:03;;;;;;;0.30;0.30;;;-0.50;99.90;;;;;;4957230;29;20544;-65
2023/12/02 14:43:30;;;;;;;0.40;0.40;;;-0.50;99.90;;;;;;4957202;29;20181;-64
2023/12/02 14:45:57;;;;;;;0.40;0.40;;;-0.50;99.90;;;;;;4956620;28;20223;-66
2023/12/02 14:48:26;;;;;;;0.40;0.40;;;-0.50;99.90;;;;;;4956609;28;20329;-64
2023/12/02 14:50:53;;;;;;;0.47;0.47;;;-0.60;99.90;;;;;;4957068;29;20205;-67
2023/12/02 14:53:19;;;;;;;0.40;0.40;;;-0.60;99.90;;;;;;4957106;29;20169;-64
2023/12/02 14:55:45;;;;;;;0.40;0.40;;;-0.60;99.90;;;;;;4956704;28;20191;-65
2023/12/02 14:58:31;;;;;;;0.33;0.33;;;-0.50;99.90;;;;;;4957127;29;20359;-65
2023/12/02 15:01:03;;;;;;;0.60;0.60;;;-0.60;99.90;;;;;;4956731;29;20168;-67
2023/12/02 15:03:29;;;;;;;0.40;0.40;;;-0.70;99.90;;;;;;4956614;29;20176;-66
2023/12/02 15:05:59;;;;;;;0.50;0.50;;;-0.70;99.90;;;;;;4956171;28;20631;-66
2023/12/02 15:08:45;;;;;;;0.40;0.40;;;-0.80;99.90;;;;;;4956834;29;20214;-64
2023/12/02 15:11:11;;;;;;;0.40;0.40;;;-0.90;99.90;;;;;;4956378;29;20187;-66
2023/12/02 15:13:37;;;;;;;0.40;0.40;;;-0.90;99.90;;;;;;4956652;29;20581;-64
2023/12/02 15:16:07;;;;;;;0.40;0.40;;;-0.90;99.90;;;;;;4956096;28;20774;-67
2023/12/02 15:18:33;;;;;;;0.50;0.50;;;-0.90;99.90;;;;;;4938893;29;20800;-67
2023/12/02 15:21:07;;;;;;;0.45;0.45;;;-0.90;99.90;;;;;;4956642;29;20169;-66
2023/12/02 15:23:33;;;;;;;0.40;0.40;;;-1.00;99.90;;;;;;4956521;29;20171;-65
2023/12/02 15:26:00;;;;;;;0.50;0.50;;;-1.00;99.90;;;;;;4955475;28;20267;-67
2023/12/02 15:28:25;;;;;;;0.50;0.50;;;-1.00;99.90;;;;;;4956687;29;20218;-65
2023/12/02 15:30:57;;;;;;;0.40;0.40;;;-0.90;99.90;;;;;;4956335;29;20165;-66
2023/12/02 15:33:24;;;;;;;0.40;0.40;;;-0.90;99.90;;;;;;4956168;29;20175;-65
2023/12/02 15:35:50;;;;;;;0.30;0.30;;;-0.80;99.90;;;;;;4955574;28;20669;-65
2023/12/02 15:38:16;;;;;;;0.50;0.50;;;-0.80;99.90;;;;;;4938914;29;20184;-63
2023/12/02 15:40:42;;;;;;;0.40;0.40;;;-0.80;99.90;;;;;;4955700;29;20439;-67
2023/12/02 15:43:08;;;;;;;0.40;0.40;;;-0.80;99.90;;;;;;4956008;29;20415;-64
2023/12/02 15:45:34;;;;;;;0.38;0.38;;;-0.90;99.90;;;;;;4955679;28;20299;-66
2023/12/02 15:48:00;;;;;;;0.40;0.40;;;-0.90;99.90;;;;;;4938702;29;20215;-65
2023/12/02 15:50:26;;;;;;;0.30;0.30;;;-0.90;99.90;;;;;;4955933;29;20444;-67
2023/12/02 15:52:52;;;;;;;0.40;0.40;;;-1.00;99.90;;;;;;4955830;29;20181;-63
2023/12/02 15:55:20;;;;;;;0.40;0.40;;;-1.00;99.90;;;;;;4955070;28;20196;-66
2023/12/02 15:57:46;;;;;;;0.50;0.50;;;-1.00;99.90;;;;;;4956163;29;20608;-64
2023/12/02 16:00:15;;;;;;;0.40;0.40;;;-1.00;99.90;;;;;;4955493;28;20192;-65
2023/12/02 16:02:47;;;;;;;0.40;0.40;;;-1.00;99.90;;;;;;4955939;29;20422;-66
2023/12/02 16:05:13;;;;;;;0.40;0.40;;;-1.00;99.90;;;;;;4955181;28;20203;-64
2023/12/02 16:07:40;;;;;;;0.40;0.40;;;-1.10;99.90;;;;;;4955461;29;20555;-65
2023/12/02 16:10:10;;;;;;;0.50;0.50;;;-1.10;99.90;;;;;;4955513;29;20177;-65
2023/12/02 16:12:36;;;;;;;0.35;0.35;;;-1.10;99.90;;;;;;4955723;29;20180;-65
2023/12/02 16:15:03;;;;;;;0.40;0.40;;;-1.10;99.90;;;;;;4955200;28;20608;-64
2023/12/02 16:17:30;;;;;;;0.40;0.40;;;-1.00;99.90;;;;;;4938409;29;20990;-64
2023/12/02 16:19:56;;;;;;;0.40;0.40;;;-1.00;99.90;;;;;;4955590;29;20210;-64
2023/12/02 16:22:23;;;;;;;0.40;0.40;;;-1.10;99.90;;;;;;4955646;29;20208;-63
2023/12/02 16:24:48;;;;;;;0.47;0.47;;;-1.10;99.90;;;;;;4954564;28;20525;-65
2023/12/02 16:27:16;;;;;;;0.50;0.50;;;-1.10;99.90;;;;;;4955461;29;20165;-64
2023/12/02 16:29:52;;;;;;;0.40;0.40;;;-1.10;99.90;;;;;;4955656;29;20168;-64
2023/12/02 16:32:18;;;;;;;0.43;0.43;;;-1.10;99.90;;;;;;4955106;29;20174;-65
2023/12/02 16:34:47;;;;;;;0.40;0.40;;;-1.20;99.90;;;;;;4954459;28;20208;-63
2023/12/02 16:37:16;;;;;;;0.50;0.50;;;-1.20;99.90;;;;;;4955309;29;20655;-63
2023/12/02 16:39:42;;;;;;;0.40;0.40;;;-1.20;99.90;;;;;;4955346;29;20186;-65
2023/12/02 16:42:08;;;;;;;0.40;0.40;;;-1.20;99.90;;;;;;4955366;29;20205;-64
2023/12/02 16:44:34;;;;;;;0.40;0.40;;;-1.20;99.90;;;;;;4955118;29;20245;-64
2023/12/02 16:47:00;;;;;;;0.40;0.40;;;-1.20;99.90;;;;;;4955005;28;20511;-65
2023/12/02 16:49:26;;;;;;;0.40;0.40;;;-1.20;99.90;;;;;;4938498;29;20205;-64
2023/12/02 16:51:51;;;;;;;0.40;0.40;;;-1.20;99.90;;;;;;4954994;29;20177;-64
2023/12/02 16:54:17;;;;;;;0.40;0.40;;;-1.20;99.90;;;;;;4954900;29;20173;-65
2023/12/02 16:56:43;;;;;;;0.40;0.40;;;-1.20;99.90;;;;;;4955155;28;20196;-64
2023/12/02 16:59:45;;;;;;;0.50;0.50;;;-1.20;99.90;;;;;;4955298;29;20259;-65
2023/12/02 17:02:33;;;;;;;0.40;0.40;;;-1.30;99.90;;;;;;4955287;29;20542;-64
2023/12/02 17:05:19;;;;;;;0.40;0.40;;;-1.20;99.90;;;;;;4954416;28;20624;-65
2023/12/02 17:07:44;;;;;;;0.40;0.40;;;-1.30;99.90;;;;;;4953200;29;20198;-64
2023/12/02 17:10:34;;;;;;;0.50;0.50;;;-1.30;99.90;;;;;;4954833;29;20184;-65
2023/12/02 17:13:00;;;;;;;0.60;0.60;;;-1.30;99.90;;;;;;4939351;29;20175;-65
2023/12/02 17:15:27;;;;;;;0.40;0.40;;;-1.30;99.90;;;;;;4958536;28;20661;-65
2023/12/02 17:17:52;;;;;;;0.40;0.40;;;-1.30;99.90;;;;;;4958907;29;20330;-64
2023/12/02 17:20:19;;;;;;;0.50;0.50;;;-1.30;99.90;;;;;;4958164;29;20699;-64
2023/12/02 17:22:44;;;;;;;0.43;0.43;;;-1.30;99.90;;;;;;4958830;29;20518;-65
2023/12/02 17:25:55;;;;;;;0.40;0.40;;;-1.30;99.90;;;;;;4957952;28;20203;-64
2023/12/02 17:28:21;;;;;;;0.40;0.40;;;-1.30;99.90;;;;;;4955508;29;20215;-65
2023/12/02 17:30:47;;;;;;;0.40;0.40;;;-1.30;99.90;;;;;;4958672;29;20218;-65
2023/12/02 17:33:13;;;;;;;0.50;0.50;;;-1.30;99.90;;;;;;4958619;29;20638;-65
2023/12/02 17:35:38;;;;;;;1.90;1.80;;;-1.30;99.90;;;;;;4957914;28;20204;-66
2023/12/02 17:38:04;;;;;;;0.40;0.40;;;-1.30;99.90;;;;;;4958656;29;20187;-64
2023/12/02 17:40:29;;;;;;;0.40;0.40;;;-1.30;99.90;;;;;;4958635;29;20176;-64
2023/12/02 17:42:55;;;;;;;0.60;0.60;;;-1.30;99.90;;;;;;4958449;29;20177;-65
2023/12/02 17:45:21;;;;;;;0.30;0.30;;;-1.30;99.90;;;;;;4957709;28;20483;-64
2023/12/02 17:47:46;;;;;;;0.60;0.60;;;-1.30;99.90;;;;;;4958735;29;20537;-65
2023/12/02 17:50:12;;;;;;;0.43;0.43;;;-1.30;99.90;;;;;;4957758;29;20177;-63
2023/12/02 17:52:38;;;;;;;0.30;0.30;;;-1.30;99.90;;;;;;4957871;29;20173;-65
2023/12/02 17:55:04;;;;;;;0.32;0.32;;;-1.30;99.90;;;;;;4957661;28;20204;-63
2023/12/02 17:57:30;;;;;;;0.40;0.40;;;-1.40;99.90;;;;;;4958211;29;20195;-64
2023/12/02 17:59:55;;;;;;;0.30;0.30;;;-1.40;99.90;;;;;;4958160;29;20184;-65
2023/12/02 18:02:21;;;;;;;0.50;0.50;;;-1.30;99.90;;;;;;4957911;29;20633;-64
2023/12/02 18:04:46;;;;;;;0.40;0.40;;;-1.30;99.90;;;;;;4957101;28;20200;-63
2023/12/02 18:07:12;;;;;;;0.53;0.53;;;-1.30;99.90;;;;;;4957974;29;20191;-63
2023/12/02 18:09:38;;;;;;;0.30;0.30;;;-1.30;99.90;;;;;;4958180;29;20173;-64
2023/12/02 18:12:04;;;;;;;0.50;0.50;;;-1.30;99.90;;;;;;4958081;29;20517;-64
2023/12/02 18:14:30;;;;;;;0.40;0.40;;;-1.30;99.90;;;;;;4957523;29;20421;-65
2023/12/02 18:16:55;;;;;;;0.40;0.40;;;-1.30;99.90;;;;;;4940457;29;20683;-65
2023/12/02 18:19:21;;;;;;;0.50;0.50;;;-1.30;99.90;;;;;;4957728;29;20195;-64